Time;durP1;ratioP1;P1;durP2;ratioP2;P2;SDS_P1;SDS_P2;PMS_P1;PMS_P2;Temp;Humidity;BMP_temperature;BMP_pressure;BME280_temperature;BME280_humidity;BME280_pressure;Samples;Min_cycle;Max_cycle;Signal;HPM_P1;HPM_P2
2023/12/08 00:00:51;;;;;;;;;18.25;17.50;;;;;22.88;27.63;101385.71;245392;1184;72931;-74
2023/12/08 00:06:07;;;;;;;;;20.33;18.33;;;;;22.88;27.76;101395.30;245429;1182;73555;-73
2023/12/08 00:11:13;;;;;;;;;16.00;16.00;;;;;22.89;27.84;101391.73;245431;1182;73962;-73
2023/12/08 00:16:17;;;;;;;;;20.50;19.25;;;;;22.88;27.93;101395.25;245420;1182;73436;-74
2023/12/08 00:21:21;;;;;;;;;16.00;16.00;;;;;22.88;27.91;101396.36;245381;1178;73960;-74
2023/12/08 00:26:26;;;;;;;;;17.00;17.00;;;;;22.89;27.92;101400.33;245414;1180;73790;-74
2023/12/08 00:31:29;;;;;;;;;16.75;16.75;;;;;22.86;27.85;101399.69;245386;1182;72356;-74
2023/12/08 00:36:33;;;;;;;;;15.50;15.50;;;;;22.87;27.79;101401.50;245395;1183;73731;-74
2023/12/08 00:41:37;;;;;;;;;19.25;19.25;;;;;22.86;27.88;101407.73;245278;1180;73703;-74
2023/12/08 00:46:41;;;;;;;;;18.33;16.67;;;;;22.84;27.72;101411.13;245394;1177;73295;-74
2023/12/08 00:51:46;;;;;;;;;22.25;21.75;;;;;22.83;27.70;101417.63;245399;1183;72212;-74
2023/12/08 00:56:50;;;;;;;;;15.75;15.50;;;;;22.84;27.91;101418.55;245408;1183;74290;-74
2023/12/08 01:01:55;;;;;;;;;21.50;17.00;;;;;22.84;28.14;101416.33;245421;1182;73692;-74
2023/12/08 01:06:58;;;;;;;;;18.75;17.25;;;;;22.83;28.04;101418.13;245349;1179;73970;-73
2023/12/08 01:12:04;;;;;;;;;17.50;16.25;;;;;22.84;27.85;101412.42;245400;1183;74095;-74
2023/12/08 01:17:08;;;;;;;;;16.00;16.00;;;;;22.82;27.95;101398.96;245387;1183;73033;-74
2023/12/08 01:22:14;;;;;;;;;19.75;17.75;;;;;22.81;27.84;101391.95;245387;1183;73339;-74
2023/12/08 01:27:18;;;;;;;;;18.67;17.00;;;;;22.81;28.03;101383.15;245406;1182;73808;-74
2023/12/08 01:32:23;;;;;;;;;19.25;18.25;;;;;22.81;28.14;101379.74;245362;1182;73762;-74
2023/12/08 01:37:27;;;;;;;;;19.50;17.50;;;;;22.80;28.05;101376.92;245424;1190;72145;-74
2023/12/08 01:42:31;;;;;;;;;17.00;17.00;;;;;22.79;28.12;101369.23;245372;1181;72767;-74
2023/12/08 01:47:35;;;;;;;;;19.25;18.50;;;;;22.80;28.28;101372.11;245332;1181;73497;-74
2023/12/08 01:52:39;;;;;;;;;15.50;15.50;;;;;22.78;28.25;101374.18;245357;1182;61453;-74
2023/12/08 01:57:43;;;;;;;;;19.00;17.25;;;;;22.79;28.12;101387.22;245350;1181;61014;-74
2023/12/08 02:02:48;;;;;;;;;19.25;18.25;;;;;22.78;28.01;101388.84;245305;1184;60422;-74
2023/12/08 02:07:54;;;;;;;;;18.33;17.00;;;;;22.77;28.08;101388.11;245373;1183;74146;-74
2023/12/08 02:12:58;;;;;;;;;16.25;16.00;;;;;22.76;28.04;101389.52;245369;1191;73818;-73
2023/12/08 02:18:02;;;;;;;;;15.00;15.00;;;;;22.75;27.92;101393.44;245323;1183;73493;-74
2023/12/08 02:23:06;;;;;;;;;17.00;16.00;;;;;22.75;28.12;101400.69;245337;1182;73340;-74
2023/12/08 02:28:09;;;;;;;;;17.50;17.50;;;;;22.74;27.90;101396.33;245251;1180;73672;-74
2023/12/08 02:33:39;;;;;;;;;17.33;17.33;;;;;22.74;28.05;101395.77;245329;1182;73999;-74
2023/12/08 02:38:44;;;;;;;;;17.25;17.25;;;;;22.74;28.08;101392.13;245344;1182;73048;-74
2023/12/08 02:43:47;;;;;;;;;19.00;17.25;;;;;22.74;28.13;101386.89;245316;1178;74122;-74
2023/12/08 02:48:52;;;;;;;;;16.75;15.50;;;;;22.73;28.18;101389.20;245402;1183;73707;-74
2023/12/08 02:53:59;;;;;;;;;18.33;15.67;;;;;22.72;28.20;101387.86;245376;1187;73362;-74
2023/12/08 02:59:02;;;;;;;;;17.75;17.75;;;;;22.71;28.17;101381.60;245382;1183;73580;-74
2023/12/08 03:04:07;;;;;;;;;17.25;17.25;;;;;22.70;28.12;101385.11;245324;1183;72719;-74
2023/12/08 03:09:11;;;;;;;;;18.25;16.75;;;;;22.69;27.74;101390.48;245339;1179;73703;-74
2023/12/08 03:14:15;;;;;;;;;17.25;17.25;;;;;22.66;27.86;101386.88;245350;1183;72985;-74
2023/12/08 03:19:19;;;;;;;;;16.75;16.75;;;;;22.64;27.70;101383.92;245359;1179;73487;-74
2023/12/08 03:24:23;;;;;;;;;17.25;17.25;;;;;22.65;27.73;101373.98;245378;1183;74262;-74
2023/12/08 03:29:27;;;;;;;;;18.75;17.25;;;;;22.65;27.89;101373.30;245392;1182;72797;-73
2023/12/08 03:34:32;;;;;;;;;18.00;18.00;;;;;22.63;27.81;101377.13;245322;1183;74318;-73
2023/12/08 03:39:36;;;;;;;;;16.50;15.75;;;;;22.64;27.82;101382.12;245373;1181;74041;-74
2023/12/08 03:44:40;;;;;;;;;15.25;15.25;;;;;22.64;28.20;101386.64;245342;1183;73386;-74
2023/12/08 03:49:44;;;;;;;;;16.00;16.00;;;;;22.64;27.94;101392.52;245329;1179;73660;-74
2023/12/08 03:54:49;;;;;;;;;15.75;14.75;;;;;22.63;27.87;101398.52;245315;1183;73246;-74
2023/12/08 03:59:53;;;;;;;;;17.67;17.67;;;;;22.61;27.80;101396.17;245339;1180;73783;-74
2023/12/08 04:04:57;;;;;;;;;18.25;18.00;;;;;22.58;27.69;101400.94;245401;1182;74368;-74
2023/12/08 04:10:01;;;;;;;;;25.50;23.75;;;;;22.40;25.71;101397.76;245390;1184;73856;-74
2023/12/08 04:15:05;;;;;;;;;22.67;20.67;;;;;22.24;26.09;101398.89;245447;1180;73325;-74
2023/12/08 04:20:09;;;;;;;;;23.25;22.00;;;;;22.22;25.80;101399.22;245289;1184;73844;-74
2023/12/08 04:25:13;;;;;;;;;25.75;25.75;;;;;22.26;25.80;101388.42;245371;1183;73388;-74
2023/12/08 04:30:17;;;;;;;;;31.75;27.75;;;;;22.36;25.10;101382.77;245442;1183;72933;-74
2023/12/08 04:35:22;;;;;;;;;20.75;20.75;;;;;22.52;24.67;101387.83;245377;1183;73931;-74
2023/12/08 04:40:26;;;;;;;;;28.75;25.75;;;;;22.69;24.40;101388.72;245254;1181;73746;-74
2023/12/08 04:45:31;;;;;;;;;24.25;23.50;;;;;22.91;24.30;101391.25;245403;1180;73609;-74
2023/12/08 04:50:35;;;;;;;;;27.50;24.75;;;;;23.14;23.98;101391.65;245419;1183;73451;-74
2023/12/08 04:55:39;;;;;;;;;24.33;23.00;;;;;23.34;23.84;101386.47;245369;1183;72776;-74
2023/12/08 05:00:43;;;;;;;;;23.25;22.25;;;;;23.48;23.77;101383.15;245422;1182;74130;-74
2023/12/08 05:05:47;;;;;;;;;25.25;25.25;;;;;23.55;23.56;101384.04;245391;1183;73446;-74
2023/12/08 05:10:52;;;;;;;;;21.67;19.67;;;;;23.59;23.24;101388.70;245223;1184;74022;-75
2023/12/08 05:15:56;;;;;;;;;24.00;23.67;;;;;23.62;23.25;101395.80;245334;1182;72884;-75
2023/12/08 05:21:01;;;;;;;;;23.00;23.00;;;;;23.63;22.91;101404.54;245362;1181;73949;-75
2023/12/08 05:26:05;;;;;;;;;23.50;23.50;;;;;23.66;22.66;101411.66;245329;1183;73607;-75
2023/12/08 05:31:09;;;;;;;;;24.75;24.75;;;;;23.70;22.59;101413.34;245220;1183;73149;-75
2023/12/08 05:36:13;;;;;;;;;21.75;20.25;;;;;23.76;22.43;101419.59;245114;1184;74068;-74
2023/12/08 05:41:17;;;;;;;;;25.50;23.50;;;;;23.83;22.98;101424.71;245155;1180;72838;-75
2023/12/08 05:46:21;;;;;;;;;22.75;22.50;;;;;23.88;23.64;101422.23;245104;1183;74166;-73
2023/12/08 05:51:25;;;;;;;;;29.33;28.00;;;;;23.92;25.41;101427.73;245159;1182;74000;-73
2023/12/08 05:56:31;;;;;;;;;23.00;20.75;;;;;24.05;27.06;101432.71;244901;1180;73086;-75
2023/12/08 06:01:35;;;;;;;;;23.00;23.00;;;;;24.26;28.97;101439.13;244070;1183;73346;-73
2023/12/08 06:06:40;;;;;;;;;25.00;22.00;;;;;24.44;30.75;101456.28;244117;1183;74088;-77
2023/12/08 06:11:47;;;;;;;;;22.75;21.50;;;;;24.70;32.48;101461.36;244221;1183;73892;-78
2023/12/08 06:16:53;;;;;;;;;19.25;18.25;;;;;24.92;33.63;101466.52;244015;1183;73038;-75
2023/12/08 06:21:59;;;;;;;;;30.25;22.25;;;;;25.10;34.37;101471.58;243977;1183;72044;-78
2023/12/08 06:27:04;;;;;;;;;25.50;22.25;;;;;25.26;35.92;101471.08;243976;1183;73535;-76
2023/12/08 06:32:10;;;;;;;;;26.00;22.00;;;;;25.47;35.82;101478.94;244155;1182;73120;-75
2023/12/08 06:37:14;;;;;;;;;23.33;21.00;;;;;25.63;35.23;101482.98;244139;1183;72943;-75
2023/12/08 06:42:18;;;;;;;;;20.00;18.00;;;;;25.78;35.09;101489.21;244202;1182;72667;-75
2023/12/08 06:47:23;;;;;;;;;22.25;19.75;;;;;25.94;34.29;101488.41;244109;1179;72834;-73
2023/12/08 06:52:27;;;;;;;;;21.00;18.00;;;;;26.07;34.23;101492.13;244035;1177;73506;-81
2023/12/08 06:57:35;;;;;;;;;27.00;20.50;;;;;26.18;33.85;101503.50;244160;1181;73711;-75
2023/12/08 07:02:39;;;;;;;;;19.25;18.75;;;;;26.05;31.73;101509.39;244099;1177;73080;-75
2023/12/08 07:07:44;;;;;;;;;22.75;21.00;;;;;25.92;31.54;101505.67;244128;1180;74621;-78
2023/12/08 07:12:51;;;;;;;;;22.00;20.00;;;;;26.03;31.60;101490.81;244240;1182;73051;-76
2023/12/08 07:17:56;;;;;;;;;22.00;20.00;;;;;26.17;31.48;101498.87;244341;1177;72821;-75
2023/12/08 07:23:01;;;;;;;;;22.33;22.33;;;;;26.29;31.24;101503.35;244347;1180;73947;-76
2023/12/08 07:28:07;;;;;;;;;20.00;19.00;;;;;26.38;31.14;101498.95;244409;1180;73075;-78
2023/12/08 07:33:12;;;;;;;;;22.00;21.33;;;;;26.45;31.13;101496.36;244288;1182;72839;-74
2023/12/08 07:38:16;;;;;;;;;23.00;20.50;;;;;26.54;30.91;101491.13;244101;1177;73793;-77
2023/12/08 07:43:21;;;;;;;;;26.00;23.00;;;;;26.62;31.04;101489.56;244197;1177;73067;-76
2023/12/08 07:48:26;;;;;;;;;23.00;21.50;;;;;26.68;30.88;101485.76;244048;1179;72941;-76
2023/12/08 07:53:33;;;;;;;;;21.00;20.00;;;;;26.73;30.88;101481.02;244153;1177;74226;-73
2023/12/08 07:58:37;;;;;;;;;24.25;22.75;;;;;26.59;27.15;101477.42;244507;1180;73210;-76
2023/12/08 08:03:42;;;;;;;;;26.00;21.67;;;;;26.08;25.32;101483.93;244413;1183;72914;-73
2023/12/08 08:08:46;;;;;;;;;23.25;20.75;;;;;25.96;28.56;101484.98;244272;1177;73482;-78
2023/12/08 08:13:52;;;;;;;;;22.75;22.00;;;;;26.16;29.74;101482.05;244226;1183;74859;-76
2023/12/08 08:18:57;;;;;;;;;16.00;16.00;;;;;26.35;30.18;101486.96;244270;1177;72921;-75
2023/12/08 08:24:03;;;;;;;;;18.75;17.50;;;;;26.56;30.18;101493.72;244082;1180;73154;-75
2023/12/08 08:29:10;;;;;;;;;22.25;20.00;;;;;26.72;30.43;101487.77;244151;1182;73048;-76
2023/12/08 08:34:16;;;;;;;;;23.25;23.25;;;;;26.86;30.63;101480.89;244177;1178;73741;-78
2023/12/08 08:39:24;;;;;;;;;20.00;20.00;;;;;26.96;30.76;101475.57;244274;1179;72934;-77
2023/12/08 08:44:30;;;;;;;;;22.50;20.00;;;;;27.05;30.75;101485.55;244328;1177;73150;-77
2023/12/08 08:49:34;;;;;;;;;18.50;17.75;;;;;27.19;31.13;101485.17;244196;1182;74371;-78
2023/12/08 08:54:39;;;;;;;;;23.75;20.25;;;;;27.30;31.12;101476.86;244995;1177;74018;-75
2023/12/08 08:59:45;;;;;;;;;19.00;18.33;;;;;27.45;31.22;101475.60;245221;1179;74117;-78
2023/12/08 09:04:49;;;;;;;;;22.75;21.50;;;;;27.47;29.76;101469.77;245287;1183;73391;-73
2023/12/08 09:09:54;;;;;;;;;19.25;19.25;;;;;27.45;30.75;101464.19;245246;1179;73836;-77
2023/12/08 09:14:59;;;;;;;;;19.50;19.50;;;;;27.53;30.97;101457.50;245332;1180;73252;-77
2023/12/08 09:20:07;;;;;;;;;23.75;19.50;;;;;27.63;30.76;101459.63;245298;1177;73601;-80
2023/12/08 09:25:14;;;;;;;;;20.00;20.00;;;;;27.66;30.54;101461.05;245351;1182;72906;-79
2023/12/08 09:30:19;;;;;;;;;17.00;15.50;;;;;27.74;30.76;101462.61;245318;1183;73367;-76
2023/12/08 09:35:25;;;;;;;;;17.00;17.00;;;;;27.85;30.40;101468.10;244790;1177;73889;-77
2023/12/08 09:40:36;;;;;;;;;15.00;15.00;;;;;27.98;30.58;101468.69;244827;1179;74297;-76
2023/12/08 09:45:43;;;;;;;;;16.25;15.75;;;;;28.12;30.80;101460.20;244194;1183;73523;-75
2023/12/08 09:50:50;;;;;;;;;14.00;13.50;;;;;28.25;30.64;101452.16;244152;1183;73931;-77
2023/12/08 09:55:55;;;;;;;;;20.00;20.00;;;;;28.39;30.29;101443.16;244164;1180;74391;-75
2023/12/08 10:01:00;;;;;;;;;21.75;21.75;;;;;28.26;26.25;101438.65;244147;1177;74518;-79
2023/12/08 10:06:08;;;;;;;;;25.50;22.50;;;;;28.22;26.36;101436.99;244358;1177;74155;-77
2023/12/08 10:11:16;;;;;;;;;22.00;20.50;;;;;28.19;26.26;101437.56;244016;1183;73351;-77
2023/12/08 10:16:23;;;;;;;;;19.25;19.25;;;;;28.14;25.74;101445.89;244045;1177;72932;-76
2023/12/08 10:21:29;;;;;;;;;18.50;18.50;;;;;27.99;25.72;101440.38;244194;1182;72991;-76
2023/12/08 10:26:36;;;;;;;;;21.25;18.25;;;;;28.01;25.29;101441.06;244135;1178;73756;-76
2023/12/08 10:31:41;;;;;;;;;19.25;16.50;;;;;28.12;24.69;101441.41;243983;1183;72690;-76
2023/12/08 10:36:46;;;;;;;;;18.50;17.50;;;;;28.18;24.32;101433.30;243779;1180;72782;-76
2023/12/08 10:41:55;;;;;;;;;18.00;18.00;;;;;28.14;24.04;101428.25;245421;1177;74857;-77
2023/12/08 10:47:00;;;;;;;;;18.00;18.00;;;;;28.35;23.35;101418.32;245076;1183;72942;-77
2023/12/08 10:52:06;;;;;;;;;21.25;19.25;;;;;28.54;22.90;101412.23;244202;1180;73522;-77
2023/12/08 10:57:11;;;;;;;;;16.00;15.50;;;;;28.45;22.65;101404.34;244161;1177;73260;-77
2023/12/08 11:02:21;;;;;;;;;15.50;15.50;;;;;28.57;22.46;101410.43;244377;1179;72869;-76
2023/12/08 11:07:32;;;;;;;;;20.75;18.00;;;;;28.67;22.08;101415.14;244220;1180;72940;-76
2023/12/08 11:12:43;;;;;;;;;18.75;17.50;;;;;28.46;22.14;101419.27;243993;1177;73624;-76
2023/12/08 11:17:50;;;;;;;;;21.00;19.50;;;;;28.01;22.55;101412.51;244060;1178;73589;-76
2023/12/08 11:22:55;;;;;;;;;24.25;24.25;;;;;27.65;21.94;101404.82;244041;1183;74844;-76
2023/12/08 11:28:25;;;;;;;;;23.75;23.75;;;;;27.32;20.84;101397.25;243874;1180;73510;-75
2023/12/08 11:33:35;;;;;;;;;33.33;28.67;;;;;27.04;20.49;101400.36;243949;1177;73757;-77
2023/12/08 11:38:39;;;;;;;;;29.75;28.25;;;;;26.69;20.34;101405.75;245198;1180;73171;-77
2023/12/08 11:43:46;;;;;;;;;31.50;28.75;;;;;26.48;19.72;101407.84;245248;1182;73990;-78
2023/12/08 11:48:52;;;;;;;;;25.25;24.25;;;;;26.14;19.14;101410.86;245217;1183;73677;-77
2023/12/08 11:53:57;;;;;;;;;31.25;29.25;;;;;25.90;19.49;101410.95;245181;1177;73548;-78
2023/12/08 11:59:01;;;;;;;;;30.33;29.00;;;;;25.72;19.40;101402.67;245203;1180;73325;-78
2023/12/08 12:04:11;;;;;;;;;32.25;30.00;;;;;25.74;19.71;101399.37;245182;1183;74137;-78
2023/12/08 12:09:20;;;;;;;;;30.25;30.25;;;;;25.86;19.71;101403.91;245218;1183;73022;-78
2023/12/08 12:14:26;;;;;;;;;28.50;27.75;;;;;25.88;20.00;101398.48;245272;1183;73408;-78
2023/12/08 12:19:31;;;;;;;;;30.00;29.25;;;;;25.91;20.05;101384.79;245241;1183;73373;-78
2023/12/08 12:24:36;;;;;;;;;25.75;23.75;;;;;25.95;20.23;101374.73;245237;1182;73289;-77
2023/12/08 12:29:41;;;;;;;;;29.00;26.75;;;;;25.99;20.16;101370.84;245234;1177;73885;-78
2023/12/08 12:34:45;;;;;;;;;28.75;28.75;;;;;26.26;20.20;101371.46;245244;1180;73463;-78
2023/12/08 12:39:49;;;;;;;;;22.75;22.75;;;;;26.53;19.99;101372.98;245340;1183;73611;-78
2023/12/08 12:44:54;;;;;;;;;28.50;27.00;;;;;26.31;20.35;101379.66;245259;1180;73823;-77
2023/12/08 12:50:08;;;;;;;;;30.75;29.00;;;;;26.11;19.85;101377.77;245363;1177;72939;-81
2023/12/08 12:55:26;;;;;;;;;30.50;29.00;;;;;25.65;19.58;101383.55;245347;1181;73502;-73
2023/12/08 13:00:42;;;;;;;;;31.25;27.00;;;;;25.24;19.42;101391.69;245297;1183;73368;-73
2023/12/08 13:05:57;;;;;;;;;27.50;25.25;;;;;25.06;20.75;101393.61;245203;1183;74261;-73
2023/12/08 13:11:02;;;;;;;;;29.50;27.75;;;;;24.95;20.61;101386.77;245299;1177;73353;-74
2023/12/08 13:16:07;;;;;;;;;26.75;26.00;;;;;24.84;20.70;101387.38;245281;1184;74087;-73
2023/12/08 13:21:11;;;;;;;;;33.25;31.00;;;;;24.76;20.98;101395.44;245318;1183;72705;-73
2023/12/08 13:26:15;;;;;;;;;31.00;29.00;;;;;24.70;21.08;101401.22;245236;1179;73209;-73
2023/12/08 13:31:19;;;;;;;;;29.50;29.25;;;;;24.66;21.36;101402.93;245207;1182;73027;-73
2023/12/08 13:36:24;;;;;;;;;30.50;30.25;;;;;24.56;21.13;101406.64;245313;1182;73211;-73
2023/12/08 13:41:28;;;;;;;;;29.25;29.25;;;;;24.51;21.23;101410.11;245363;1182;73554;-74
2023/12/08 13:49:38;;;;;;;;;27.67;27.67;;;;;24.30;21.95;101412.21;238226;1194;57697;-58
2023/12/08 13:54:41;;;;;;;;;30.75;28.00;;;;;24.01;24.26;101416.55;239969;1184;73864;-60
2023/12/08 13:59:45;;;;;;;;;27.25;27.25;;;;;23.94;26.70;101426.59;242283;1190;73002;-61
2023/12/08 14:04:48;;;;;;;;;29.50;28.25;;;;;24.01;27.32;101431.03;245487;1178;73113;-60
2023/12/08 14:09:51;;;;;;;;;33.50;29.25;;;;;24.06;28.04;101435.95;245485;1183;73760;-60
2023/12/08 14:14:54;;;;;;;;;35.00;33.50;;;;;24.03;27.86;101438.09;245455;1179;56205;-61
2023/12/08 14:19:59;;;;;;;;;33.50;29.50;;;;;23.97;26.93;101441.04;245517;1180;73017;-61
2023/12/08 14:25:02;;;;;;;;;30.75;29.00;;;;;23.84;26.51;101441.56;245337;1183;73120;-61
2023/12/08 14:30:08;;;;;;;;;30.75;28.25;;;;;23.71;26.73;101444.98;245311;1184;56268;-60
2023/12/08 14:35:11;;;;;;;;;30.25;29.00;;;;;23.64;28.16;101443.73;245362;1183;72777;-60
2023/12/08 14:40:28;;;;;;;;;29.00;27.50;;;;;23.59;28.76;101451.04;245335;1182;72256;-60
2023/12/08 14:45:31;;;;;;;;;33.00;32.00;;;;;23.55;28.63;101451.42;245365;1180;74121;-60
2023/12/08 14:50:35;;;;;;;;;33.75;31.25;;;;;23.51;27.63;101445.71;245309;1191;73575;-60
2023/12/08 14:55:39;;;;;;;;;33.25;31.75;;;;;23.48;27.19;101448.05;245306;1179;73499;-60
2023/12/08 15:00:42;;;;;;;;;28.50;26.75;;;;;23.42;26.93;101449.30;245297;1182;56964;-60
2023/12/08 15:05:46;;;;;;;;;29.00;29.00;;;;;23.40;27.10;101452.44;245269;1183;72950;-60
2023/12/08 15:10:49;;;;;;;;;27.00;27.00;;;;;23.47;27.09;101452.34;245272;1183;73782;-60
2023/12/08 15:15:52;;;;;;;;;24.75;23.25;;;;;23.54;27.12;101463.98;245307;1179;56871;-60
2023/12/08 15:20:55;;;;;;;;;25.75;25.00;;;;;23.57;26.90;101475.15;245346;1183;57045;-61
2023/12/08 15:26:02;;;;;;;;;28.25;24.50;;;;;23.58;26.73;101485.69;245318;1179;56661;-61
2023/12/08 15:31:05;;;;;;;;;24.67;23.67;;;;;23.59;26.69;101484.86;245332;1183;72905;-61
2023/12/08 15:36:09;;;;;;;;;24.50;24.50;;;;;23.60;26.54;101486.96;245324;1183;73918;-61
2023/12/08 15:41:12;;;;;;;;;29.00;28.00;;;;;23.59;26.57;101486.66;245300;1183;74086;-61
2023/12/08 15:46:15;;;;;;;;;27.00;25.50;;;;;23.59;26.40;101492.88;245287;1180;56792;-60
2023/12/08 15:51:19;;;;;;;;;23.50;22.75;;;;;23.60;26.43;101495.62;245360;1180;56935;-61
2023/12/08 15:56:22;;;;;;;;;22.25;22.25;;;;;23.59;26.38;101489.95;245326;1182;73975;-61
2023/12/08 16:01:25;;;;;;;;;30.00;27.50;;;;;23.59;26.28;101492.12;245335;1180;56993;-60
2023/12/08 16:06:28;;;;;;;;;23.75;23.75;;;;;23.59;26.29;101495.27;245327;1180;56739;-61
2023/12/08 16:11:31;;;;;;;;;25.50;25.25;;;;;23.58;26.16;101499.92;245351;1182;74234;-61
2023/12/08 16:16:34;;;;;;;;;25.00;25.00;;;;;23.58;26.17;101501.52;245358;1183;74498;-61
2023/12/08 16:21:37;;;;;;;;;26.00;25.25;;;;;23.58;26.12;101505.23;245337;1179;56713;-61
2023/12/08 16:26:40;;;;;;;;;23.25;23.25;;;;;23.57;26.07;101504.64;245322;1180;56738;-61
2023/12/08 16:31:44;;;;;;;;;21.50;21.50;;;;;23.57;26.21;101507.16;245332;1182;56726;-61
2023/12/08 16:36:49;;;;;;;;;23.75;22.50;;;;;23.57;26.22;101506.40;245386;1180;56687;-60
2023/12/08 16:41:53;;;;;;;;;24.75;23.50;;;;;23.57;26.30;101506.45;245347;1183;74519;-61
2023/12/08 16:46:56;;;;;;;;;23.50;22.50;;;;;23.56;26.24;101515.27;245359;1180;72967;-60
2023/12/08 16:51:59;;;;;;;;;21.25;20.00;;;;;23.56;25.99;101522.30;245332;1180;56701;-61
2023/12/08 16:57:03;;;;;;;;;21.33;19.00;;;;;23.55;25.93;101523.14;245311;1180;56611;-61
2023/12/08 17:02:09;;;;;;;;;24.50;24.50;;;;;23.53;26.06;101521.18;245336;1182;74312;-60
2023/12/08 17:07:12;;;;;;;;;24.25;22.50;;;;;23.50;26.01;101527.58;245374;1183;73409;-61
2023/12/08 17:12:16;;;;;;;;;24.25;20.75;;;;;23.49;25.91;101532.44;245330;1184;74069;-61
2023/12/08 17:17:19;;;;;;;;;22.00;22.00;;;;;23.48;25.76;101534.10;245359;1180;56684;-60
2023/12/08 17:22:24;;;;;;;;;17.67;17.67;;;;;23.47;25.82;101537.44;245268;1183;72622;-60
2023/12/08 17:27:31;;;;;;;;;24.00;23.00;;;;;23.47;25.82;101541.59;245377;1182;73973;-60
2023/12/08 17:32:34;;;;;;;;;25.00;25.00;;;;;23.48;25.77;101546.13;245365;1178;72858;-60
2023/12/08 17:37:38;;;;;;;;;18.33;18.33;;;;;23.47;25.66;101539.99;245350;1182;73612;-60
2023/12/08 17:42:43;;;;;;;;;21.00;21.00;;;;;23.43;25.73;101546.10;245319;1179;72881;-60
2023/12/08 17:47:48;;;;;;;;;22.50;22.50;;;;;23.43;25.62;101547.04;245335;1183;56977;-60
2023/12/08 17:52:51;;;;;;;;;20.75;20.75;;;;;23.43;25.50;101546.65;245317;1182;73583;-60
2023/12/08 17:57:54;;;;;;;;;18.75;18.75;;;;;23.41;25.32;101551.54;245348;1181;56700;-60
2023/12/08 18:02:59;;;;;;;;;18.00;18.00;;;;;23.40;25.51;101553.71;245334;1180;56642;-60
2023/12/08 18:08:03;;;;;;;;;20.75;20.75;;;;;23.40;25.49;101546.10;245317;1179;73178;-60
2023/12/08 18:13:06;;;;;;;;;21.25;21.00;;;;;23.36;25.38;101544.09;245361;1182;74455;-60
2023/12/08 18:18:09;;;;;;;;;23.00;21.25;;;;;23.35;25.49;101541.01;245368;1191;74442;-60
2023/12/08 18:23:14;;;;;;;;;24.25;24.00;;;;;23.36;25.47;101537.33;245343;1191;73426;-60
2023/12/08 18:28:19;;;;;;;;;20.67;20.33;;;;;23.35;25.37;101526.48;245331;1182;72786;-60
2023/12/08 18:33:43;;;;;;;;;19.75;19.75;;;;;23.36;25.39;101526.02;245386;1182;73120;-60
2023/12/08 18:38:48;;;;;;;;;20.33;20.33;;;;;23.36;25.39;101528.59;245355;1182;73819;-60
2023/12/08 18:43:51;;;;;;;;;20.00;19.25;;;;;23.36;25.43;101519.10;245323;1182;74228;-60
2023/12/08 18:48:57;;;;;;;;;21.75;21.75;;;;;23.34;25.27;101519.88;245353;1180;57130;-60
2023/12/08 18:54:01;;;;;;;;;26.00;25.00;;;;;23.34;25.36;101522.65;245356;1179;73696;-60
2023/12/08 18:59:04;;;;;;;;;24.00;20.00;;;;;23.33;25.18;101522.90;245355;1191;73269;-60
2023/12/08 19:04:07;;;;;;;;;22.25;21.75;;;;;23.33;25.27;101521.52;245298;1183;73116;-60
2023/12/08 19:09:11;;;;;;;;;23.00;23.00;;;;;23.32;25.25;101516.30;245335;1183;73320;-60
2023/12/08 19:14:14;;;;;;;;;25.25;24.50;;;;;23.31;25.20;101515.05;245343;1184;56907;-60
2023/12/08 19:19:17;;;;;;;;;22.75;22.75;;;;;23.30;25.20;101529.23;245310;1180;56696;-60
2023/12/08 19:24:20;;;;;;;;;22.25;18.75;;;;;23.29;25.22;101530.77;245402;1181;56648;-60
2023/12/08 19:29:23;;;;;;;;;22.75;20.75;;;;;23.28;25.31;101520.36;245355;1181;73368;-60
2023/12/08 19:34:26;;;;;;;;;22.00;21.67;;;;;23.28;25.15;101516.21;245362;1179;56640;-60
2023/12/08 19:39:29;;;;;;;;;19.25;19.25;;;;;23.28;25.19;101525.91;245385;1180;56519;-60
2023/12/08 19:44:33;;;;;;;;;20.75;19.50;;;;;23.25;25.12;101524.95;245321;1181;56851;-60
2023/12/08 19:49:36;;;;;;;;;21.25;21.00;;;;;23.21;25.12;101526.61;245350;1182;75015;-61
2023/12/08 19:54:39;;;;;;;;;20.75;20.75;;;;;23.21;24.93;101524.98;245355;1183;73656;-61
2023/12/08 19:59:42;;;;;;;;;18.25;18.25;;;;;23.23;25.08;101522.55;245352;1183;56573;-61
2023/12/08 20:04:45;;;;;;;;;23.67;23.00;;;;;23.23;25.02;101516.29;245363;1182;71723;-61
2023/12/08 20:09:49;;;;;;;;;21.25;20.50;;;;;23.24;25.08;101511.76;245362;1183;56705;-60
2023/12/08 20:14:52;;;;;;;;;21.25;21.25;;;;;23.24;24.99;101501.27;245341;1181;56612;-61
2023/12/08 20:19:54;;;;;;;;;25.00;22.75;;;;;23.23;25.18;101493.61;245338;1180;56703;-60
2023/12/08 20:24:58;;;;;;;;;20.25;19.50;;;;;23.22;25.03;101492.65;245366;1183;73119;-60
2023/12/08 20:30:01;;;;;;;;;22.00;22.00;;;;;23.22;25.16;101491.17;245370;1183;73454;-60
2023/12/08 20:35:04;;;;;;;;;20.00;17.75;;;;;23.21;25.08;101492.69;245362;1182;73120;-61
2023/12/08 20:40:08;;;;;;;;;18.75;18.75;;;;;23.23;25.29;101498.48;245375;1183;73865;-61
2023/12/08 20:45:11;;;;;;;;;23.25;21.25;;;;;23.22;25.18;101497.35;245321;1180;73152;-61
2023/12/08 20:50:16;;;;;;;;;22.25;20.50;;;;;23.21;25.29;101490.71;245320;1183;73707;-61
2023/12/08 20:55:19;;;;;;;;;20.75;19.00;;;;;23.20;25.24;101487.95;245370;1180;72839;-60
2023/12/08 21:00:23;;;;;;;;;19.75;19.75;;;;;23.20;25.26;101493.65;245339;1183;73521;-60
2023/12/08 21:05:29;;;;;;;;;20.75;20.75;;;;;23.21;24.97;101488.77;245344;1179;56766;-60
2023/12/08 21:10:33;;;;;;;;;20.50;20.25;;;;;23.21;25.19;101489.66;245343;1181;72478;-60
2023/12/08 21:15:36;;;;;;;;;21.25;18.75;;;;;23.20;25.00;101482.17;245346;1179;56700;-60
2023/12/08 21:20:39;;;;;;;;;24.25;22.25;;;;;23.18;25.03;101483.06;245332;1180;56636;-60
2023/12/08 21:25:42;;;;;;;;;20.00;19.25;;;;;23.18;25.17;101489.90;245328;1183;56888;-60
2023/12/08 21:30:45;;;;;;;;;24.75;21.75;;;;;23.16;25.10;101482.64;245354;1179;56545;-60
2023/12/08 21:35:48;;;;;;;;;21.00;21.00;;;;;23.16;25.05;101479.79;245349;1179;56684;-59
2023/12/08 21:40:52;;;;;;;;;20.67;20.33;;;;;23.14;25.09;101485.40;245325;1183;74313;-59
2023/12/08 21:45:55;;;;;;;;;22.50;22.25;;;;;23.15;25.08;101489.59;245368;1183;73293;-60
2023/12/08 21:50:58;;;;;;;;;23.50;22.00;;;;;23.13;25.24;101490.13;245370;1182;56701;-60
2023/12/08 21:56:02;;;;;;;;;24.50;23.00;;;;;23.15;25.01;101493.04;245362;1183;73369;-60
2023/12/08 22:01:05;;;;;;;;;19.50;19.50;;;;;23.13;25.26;101495.98;245358;1181;73424;-60
2023/12/08 22:06:09;;;;;;;;;19.50;19.50;;;;;23.12;24.94;101496.65;245348;1179;73355;-60
2023/12/08 22:11:12;;;;;;;;;22.67;22.67;;;;;23.10;25.12;101498.71;245360;1182;73550;-61
2023/12/08 22:16:15;;;;;;;;;20.67;19.00;;;;;23.10;25.12;101504.19;245345;1178;57656;-60
2023/12/08 22:21:18;;;;;;;;;20.00;19.33;;;;;23.12;25.24;101506.90;245328;1182;57496;-61
2023/12/08 22:26:21;;;;;;;;;17.50;16.75;;;;;23.12;25.27;101506.30;245381;1182;57499;-61
2023/12/08 22:31:24;;;;;;;;;22.25;20.75;;;;;23.11;24.93;101504.80;245358;1178;57550;-61
2023/12/08 22:36:27;;;;;;;;;20.67;19.33;;;;;23.12;25.07;101507.36;245363;1178;57720;-61
2023/12/08 22:41:31;;;;;;;;;23.00;22.00;;;;;23.13;25.34;101500.60;245313;1182;73708;-61
2023/12/08 22:46:34;;;;;;;;;22.75;21.00;;;;;23.13;25.48;101493.59;245358;1182;57472;-60
2023/12/08 22:51:37;;;;;;;;;18.33;18.33;;;;;23.13;25.51;101495.77;245359;1183;57526;-60